sensor_id;sensor_type;location;lat;lon;timestamp;P1;durP1;ratioP1;P2;durP2;ratioP2
34317;SDS011;20582;52.196;20.952;2023-11-21T00:00:12;32.85;;;17.15;;
34317;SDS011;20582;52.196;20.952;2023-11-21T00:02:38;32.67;;;16.88;;
34317;SDS011;20582;52.196;20.952;2023-11-21T00:05:06;33.75;;;16.85;;
34317;SDS011;20582;52.196;20.952;2023-11-21T00:07:33;32.03;;;15.65;;
34317;SDS011;20582;52.196;20.952;2023-11-21T00:09:59;36.17;;;17.40;;
34317;SDS011;20582;52.196;20.952;2023-11-21T00:12:25;32.65;;;16.40;;
34317;SDS011;20582;52.196;20.952;2023-11-21T00:14:51;39.40;;;18.15;;
34317;SDS011;20582;52.196;20.952;2023-11-21T00:17:17;39.95;;;18.50;;
34317;SDS011;20582;52.196;20.952;2023-11-21T00:19:44;35.65;;;17.58;;
34317;SDS011;20582;52.196;20.952;2023-11-21T00:22:10;35.25;;;17.20;;
34317;SDS011;20582;52.196;20.952;2023-11-21T00:24:35;42.30;;;18.38;;
34317;SDS011;20582;52.196;20.952;2023-11-21T00:27:01;44.58;;;18.00;;
34317;SDS011;20582;52.196;20.952;2023-11-21T00:29:27;38.45;;;17.95;;
34317;SDS011;20582;52.196;20.952;2023-11-21T00:31:54;42.40;;;18.95;;
34317;SDS011;20582;52.196;20.952;2023-11-21T00:34:20;42.88;;;18.05;;
34317;SDS011;20582;52.196;20.952;2023-11-21T00:36:46;38.00;;;17.30;;
34317;SDS011;20582;52.196;20.952;2023-11-21T00:39:12;41.47;;;18.42;;
34317;SDS011;20582;52.196;20.952;2023-11-21T00:41:38;47.65;;;20.77;;
34317;SDS011;20582;52.196;20.952;2023-11-21T00:44:04;50.20;;;20.50;;
34317;SDS011;20582;52.196;20.952;2023-11-21T00:46:31;50.58;;;21.55;;
34317;SDS011;20582;52.196;20.952;2023-11-21T00:48:57;54.55;;;22.13;;
34317;SDS011;20582;52.196;20.952;2023-11-21T00:51:23;55.30;;;22.27;;
34317;SDS011;20582;52.196;20.952;2023-11-21T00:53:49;46.90;;;18.20;;
34317;SDS011;20582;52.196;20.952;2023-11-21T00:56:15;52.95;;;20.75;;
34317;SDS011;20582;52.196;20.952;2023-11-21T00:58:41;49.92;;;21.42;;
34317;SDS011;20582;52.196;20.952;2023-11-21T01:01:11;53.67;;;22.20;;
34317;SDS011;20582;52.196;20.952;2023-11-21T01:03:37;46.75;;;20.40;;
34317;SDS011;20582;52.196;20.952;2023-11-21T01:06:03;50.80;;;20.27;;
34317;SDS011;20582;52.196;20.952;2023-11-21T01:08:32;49.92;;;21.13;;
34317;SDS011;20582;52.196;20.952;2023-11-21T01:10:58;46.20;;;19.30;;
34317;SDS011;20582;52.196;20.952;2023-11-21T01:13:24;48.40;;;20.33;;
34317;SDS011;20582;52.196;20.952;2023-11-21T01:15:54;49.00;;;20.20;;
34317;SDS011;20582;52.196;20.952;2023-11-21T01:18:20;50.88;;;19.65;;
34317;SDS011;20582;52.196;20.952;2023-11-21T01:20:46;44.45;;;20.33;;
34317;SDS011;20582;52.196;20.952;2023-11-21T01:23:12;45.65;;;20.48;;
34317;SDS011;20582;52.196;20.952;2023-11-21T01:25:38;45.22;;;19.10;;
34317;SDS011;20582;52.196;20.952;2023-11-21T01:28:05;42.25;;;19.83;;
34317;SDS011;20582;52.196;20.952;2023-11-21T01:30:31;39.67;;;20.33;;
34317;SDS011;20582;52.196;20.952;2023-11-21T01:32:58;50.50;;;21.08;;
34317;SDS011;20582;52.196;20.952;2023-11-21T01:35:24;44.92;;;18.95;;
34317;SDS011;20582;52.196;20.952;2023-11-21T01:37:50;41.03;;;18.85;;
34317;SDS011;20582;52.196;20.952;2023-11-21T01:40:16;41.90;;;18.40;;
34317;SDS011;20582;52.196;20.952;2023-11-21T01:42:42;43.22;;;18.67;;
34317;SDS011;20582;52.196;20.952;2023-11-21T01:45:09;45.20;;;18.92;;
34317;SDS011;20582;52.196;20.952;2023-11-21T01:47:35;39.00;;;19.10;;
34317;SDS011;20582;52.196;20.952;2023-11-21T01:50:01;44.22;;;19.33;;
34317;SDS011;20582;52.196;20.952;2023-11-21T01:52:29;42.80;;;19.65;;
34317;SDS011;20582;52.196;20.952;2023-11-21T01:54:55;39.72;;;17.85;;
34317;SDS011;20582;52.196;20.952;2023-11-21T01:57:21;40.85;;;18.02;;
34317;SDS011;20582;52.196;20.952;2023-11-21T01:59:47;41.03;;;19.77;;
34317;SDS011;20582;52.196;20.952;2023-11-21T02:02:15;41.92;;;19.23;;
34317;SDS011;20582;52.196;20.952;2023-11-21T02:04:41;46.72;;;20.17;;
34317;SDS011;20582;52.196;20.952;2023-11-21T02:07:08;42.47;;;17.60;;
34317;SDS011;20582;52.196;20.952;2023-11-21T02:09:35;43.58;;;18.85;;
34317;SDS011;20582;52.196;20.952;2023-11-21T02:12:03;42.15;;;18.90;;
34317;SDS011;20582;52.196;20.952;2023-11-21T02:14:29;44.70;;;18.83;;
34317;SDS011;20582;52.196;20.952;2023-11-21T02:16:56;40.38;;;18.10;;
34317;SDS011;20582;52.196;20.952;2023-11-21T02:19:23;41.58;;;19.13;;
34317;SDS011;20582;52.196;20.952;2023-11-21T02:21:50;45.13;;;18.85;;
34317;SDS011;20582;52.196;20.952;2023-11-21T02:24:18;44.58;;;18.65;;
34317;SDS011;20582;52.196;20.952;2023-11-21T02:26:44;42.55;;;18.63;;
34317;SDS011;20582;52.196;20.952;2023-11-21T02:29:11;48.13;;;20.52;;
34317;SDS011;20582;52.196;20.952;2023-11-21T02:31:38;43.13;;;20.27;;
34317;SDS011;20582;52.196;20.952;2023-11-21T02:34:12;41.40;;;19.17;;
34317;SDS011;20582;52.196;20.952;2023-11-21T02:36:38;45.78;;;20.52;;
34317;SDS011;20582;52.196;20.952;2023-11-21T02:39:04;45.92;;;20.33;;
34317;SDS011;20582;52.196;20.952;2023-11-21T02:41:32;44.10;;;18.95;;
34317;SDS011;20582;52.196;20.952;2023-11-21T02:43:59;37.92;;;17.65;;
34317;SDS011;20582;52.196;20.952;2023-11-21T02:46:25;41.70;;;17.30;;
34317;SDS011;20582;52.196;20.952;2023-11-21T02:48:51;39.63;;;18.35;;
34317;SDS011;20582;52.196;20.952;2023-11-21T02:51:19;41.40;;;18.25;;
34317;SDS011;20582;52.196;20.952;2023-11-21T02:53:45;42.03;;;17.90;;
34317;SDS011;20582;52.196;20.952;2023-11-21T02:58:42;33.97;;;14.85;;
34317;SDS011;20582;52.196;20.952;2023-11-21T03:01:08;37.25;;;17.50;;
34317;SDS011;20582;52.196;20.952;2023-11-21T03:03:35;37.45;;;17.33;;
34317;SDS011;20582;52.196;20.952;2023-11-21T03:06:08;40.67;;;17.90;;
34317;SDS011;20582;52.196;20.952;2023-11-21T03:08:34;41.85;;;18.65;;
34317;SDS011;20582;52.196;20.952;2023-11-21T03:11:00;41.13;;;19.17;;
34317;SDS011;20582;52.196;20.952;2023-11-21T03:13:28;46.20;;;20.73;;
34317;SDS011;20582;52.196;20.952;2023-11-21T03:15:54;41.80;;;19.02;;
34317;SDS011;20582;52.196;20.952;2023-11-21T03:18:20;39.55;;;17.63;;
34317;SDS011;20582;52.196;20.952;2023-11-21T03:20:50;40.30;;;18.40;;
34317;SDS011;20582;52.196;20.952;2023-11-21T03:23:17;42.08;;;18.45;;
34317;SDS011;20582;52.196;20.952;2023-11-21T03:25:43;37.88;;;17.67;;
34317;SDS011;20582;52.196;20.952;2023-11-21T03:28:09;42.38;;;18.08;;
34317;SDS011;20582;52.196;20.952;2023-11-21T03:30:35;38.47;;;16.63;;
34317;SDS011;20582;52.196;20.952;2023-11-21T03:33:01;43.35;;;19.58;;
34317;SDS011;20582;52.196;20.952;2023-11-21T03:35:27;43.22;;;18.35;;
34317;SDS011;20582;52.196;20.952;2023-11-21T03:37:53;37.42;;;17.00;;
34317;SDS011;20582;52.196;20.952;2023-11-21T03:40:19;41.50;;;19.02;;
34317;SDS011;20582;52.196;20.952;2023-11-21T03:42:46;40.90;;;18.30;;
34317;SDS011;20582;52.196;20.952;2023-11-21T03:45:12;42.38;;;18.70;;
34317;SDS011;20582;52.196;20.952;2023-11-21T03:47:39;45.25;;;19.88;;
34317;SDS011;20582;52.196;20.952;2023-11-21T03:50:05;43.40;;;20.08;;
34317;SDS011;20582;52.196;20.952;2023-11-21T03:52:31;43.53;;;19.20;;
34317;SDS011;20582;52.196;20.952;2023-11-21T03:54:57;40.00;;;18.25;;
34317;SDS011;20582;52.196;20.952;2023-11-21T03:57:23;39.58;;;17.90;;
34317;SDS011;20582;52.196;20.952;2023-11-21T03:59:49;43.60;;;17.85;;
34317;SDS011;20582;52.196;20.952;2023-11-21T04:02:15;41.53;;;18.25;;
34317;SDS011;20582;52.196;20.952;2023-11-21T04:04:42;40.58;;;16.77;;
34317;SDS011;20582;52.196;20.952;2023-11-21T04:07:08;41.25;;;17.77;;
34317;SDS011;20582;52.196;20.952;2023-11-21T04:09:34;35.58;;;16.75;;
34317;SDS011;20582;52.196;20.952;2023-11-21T04:12:01;43.72;;;18.45;;
34317;SDS011;20582;52.196;20.952;2023-11-21T04:14:27;37.95;;;16.80;;
34317;SDS011;20582;52.196;20.952;2023-11-21T04:16:53;43.55;;;17.85;;
34317;SDS011;20582;52.196;20.952;2023-11-21T04:19:19;38.50;;;17.52;;
34317;SDS011;20582;52.196;20.952;2023-11-21T04:21:45;39.20;;;17.85;;
34317;SDS011;20582;52.196;20.952;2023-11-21T04:24:11;33.05;;;14.95;;
34317;SDS011;20582;52.196;20.952;2023-11-21T04:26:37;35.25;;;17.15;;
34317;SDS011;20582;52.196;20.952;2023-11-21T04:29:03;40.15;;;16.75;;
34317;SDS011;20582;52.196;20.952;2023-11-21T04:31:29;34.30;;;15.15;;
34317;SDS011;20582;52.196;20.952;2023-11-21T04:33:55;33.40;;;16.13;;
34317;SDS011;20582;52.196;20.952;2023-11-21T04:36:21;37.60;;;18.13;;
34317;SDS011;20582;52.196;20.952;2023-11-21T04:38:47;32.63;;;15.50;;
34317;SDS011;20582;52.196;20.952;2023-11-21T04:41:13;31.58;;;14.43;;
34317;SDS011;20582;52.196;20.952;2023-11-21T04:43:39;33.25;;;14.88;;
34317;SDS011;20582;52.196;20.952;2023-11-21T04:46:07;28.83;;;14.32;;
34317;SDS011;20582;52.196;20.952;2023-11-21T04:48:33;33.65;;;14.23;;
34317;SDS011;20582;52.196;20.952;2023-11-21T04:50:59;30.25;;;14.00;;
34317;SDS011;20582;52.196;20.952;2023-11-21T04:53:25;30.77;;;14.23;;
34317;SDS011;20582;52.196;20.952;2023-11-21T04:55:51;31.67;;;13.55;;
34317;SDS011;20582;52.196;20.952;2023-11-21T04:58:17;31.08;;;13.35;;
34317;SDS011;20582;52.196;20.952;2023-11-21T05:00:44;30.20;;;13.50;;
34317;SDS011;20582;52.196;20.952;2023-11-21T05:03:10;26.35;;;11.75;;
34317;SDS011;20582;52.196;20.952;2023-11-21T05:05:37;29.95;;;13.18;;
34317;SDS011;20582;52.196;20.952;2023-11-21T05:08:03;26.98;;;12.05;;
34317;SDS011;20582;52.196;20.952;2023-11-21T05:10:30;27.85;;;13.07;;
34317;SDS011;20582;52.196;20.952;2023-11-21T05:12:56;28.23;;;12.85;;
34317;SDS011;20582;52.196;20.952;2023-11-21T05:15:22;32.85;;;14.18;;
34317;SDS011;20582;52.196;20.952;2023-11-21T05:17:48;29.98;;;14.52;;
34317;SDS011;20582;52.196;20.952;2023-11-21T05:20:18;32.58;;;13.80;;
34317;SDS011;20582;52.196;20.952;2023-11-21T05:22:48;28.50;;;12.98;;
34317;SDS011;20582;52.196;20.952;2023-11-21T05:25:16;26.70;;;13.77;;
34317;SDS011;20582;52.196;20.952;2023-11-21T05:27:43;27.05;;;13.15;;
34317;SDS011;20582;52.196;20.952;2023-11-21T05:30:09;23.90;;;12.18;;
34317;SDS011;20582;52.196;20.952;2023-11-21T05:32:38;27.58;;;12.93;;
34317;SDS011;20582;52.196;20.952;2023-11-21T05:35:04;25.35;;;11.93;;
34317;SDS011;20582;52.196;20.952;2023-11-21T05:37:37;26.90;;;12.82;;
34317;SDS011;20582;52.196;20.952;2023-11-21T05:40:05;25.75;;;12.50;;
34317;SDS011;20582;52.196;20.952;2023-11-21T05:42:31;21.27;;;10.82;;
34317;SDS011;20582;52.196;20.952;2023-11-21T05:44:57;27.27;;;12.50;;
34317;SDS011;20582;52.196;20.952;2023-11-21T05:47:42;23.27;;;10.20;;
34317;SDS011;20582;52.196;20.952;2023-11-21T05:50:09;25.00;;;11.30;;
34317;SDS011;20582;52.196;20.952;2023-11-21T05:52:37;24.83;;;11.52;;
34317;SDS011;20582;52.196;20.952;2023-11-21T05:55:03;23.50;;;10.48;;
34317;SDS011;20582;52.196;20.952;2023-11-21T05:57:32;20.65;;;9.80;;
34317;SDS011;20582;52.196;20.952;2023-11-21T05:59:58;23.63;;;11.82;;
34317;SDS011;20582;52.196;20.952;2023-11-21T06:02:24;24.27;;;10.43;;
34317;SDS011;20582;52.196;20.952;2023-11-21T06:04:50;17.73;;;8.82;;
34317;SDS011;20582;52.196;20.952;2023-11-21T06:07:16;23.60;;;9.43;;
34317;SDS011;20582;52.196;20.952;2023-11-21T06:09:42;19.00;;;9.45;;
34317;SDS011;20582;52.196;20.952;2023-11-21T06:12:09;21.50;;;9.50;;
34317;SDS011;20582;52.196;20.952;2023-11-21T06:14:35;21.08;;;10.07;;
34317;SDS011;20582;52.196;20.952;2023-11-21T06:17:01;21.48;;;11.15;;
34317;SDS011;20582;52.196;20.952;2023-11-21T06:19:28;20.58;;;10.05;;
34317;SDS011;20582;52.196;20.952;2023-11-21T06:21:54;22.00;;;10.30;;
34317;SDS011;20582;52.196;20.952;2023-11-21T06:24:20;25.75;;;10.82;;
34317;SDS011;20582;52.196;20.952;2023-11-21T06:26:46;25.08;;;11.45;;
34317;SDS011;20582;52.196;20.952;2023-11-21T06:29:13;24.88;;;12.10;;
34317;SDS011;20582;52.196;20.952;2023-11-21T06:31:40;25.88;;;11.93;;
34317;SDS011;20582;52.196;20.952;2023-11-21T06:34:06;19.65;;;9.90;;
34317;SDS011;20582;52.196;20.952;2023-11-21T06:36:34;21.85;;;10.23;;
34317;SDS011;20582;52.196;20.952;2023-11-21T06:39:00;22.42;;;10.50;;
34317;SDS011;20582;52.196;20.952;2023-11-21T06:41:25;28.70;;;11.85;;
34317;SDS011;20582;52.196;20.952;2023-11-21T06:43:52;27.50;;;11.80;;
34317;SDS011;20582;52.196;20.952;2023-11-21T06:46:18;25.70;;;11.23;;
34317;SDS011;20582;52.196;20.952;2023-11-21T06:48:44;23.35;;;11.50;;
34317;SDS011;20582;52.196;20.952;2023-11-21T06:51:11;23.48;;;11.18;;
34317;SDS011;20582;52.196;20.952;2023-11-21T06:53:38;22.95;;;10.70;;
34317;SDS011;20582;52.196;20.952;2023-11-21T06:56:04;23.58;;;10.85;;
34317;SDS011;20582;52.196;20.952;2023-11-21T06:58:30;20.38;;;9.43;;
34317;SDS011;20582;52.196;20.952;2023-11-21T07:00:56;22.77;;;10.45;;
34317;SDS011;20582;52.196;20.952;2023-11-21T07:03:23;23.23;;;10.82;;
34317;SDS011;20582;52.196;20.952;2023-11-21T07:05:50;20.73;;;10.55;;
34317;SDS011;20582;52.196;20.952;2023-11-21T07:08:16;20.98;;;10.05;;
34317;SDS011;20582;52.196;20.952;2023-11-21T07:10:42;24.27;;;10.73;;
34317;SDS011;20582;52.196;20.952;2023-11-21T07:13:08;20.52;;;10.07;;
34317;SDS011;20582;52.196;20.952;2023-11-21T07:15:37;23.25;;;10.55;;
34317;SDS011;20582;52.196;20.952;2023-11-21T07:18:03;22.40;;;10.88;;
34317;SDS011;20582;52.196;20.952;2023-11-21T07:20:29;24.02;;;11.70;;
34317;SDS011;20582;52.196;20.952;2023-11-21T07:22:55;25.10;;;11.70;;
34317;SDS011;20582;52.196;20.952;2023-11-21T07:25:22;25.13;;;11.32;;
34317;SDS011;20582;52.196;20.952;2023-11-21T07:27:48;22.80;;;11.57;;
34317;SDS011;20582;52.196;20.952;2023-11-21T07:30:15;23.02;;;11.50;;
34317;SDS011;20582;52.196;20.952;2023-11-21T07:32:41;24.70;;;11.95;;
34317;SDS011;20582;52.196;20.952;2023-11-21T07:35:07;25.20;;;12.50;;
34317;SDS011;20582;52.196;20.952;2023-11-21T07:37:33;26.98;;;12.55;;
34317;SDS011;20582;52.196;20.952;2023-11-21T07:39:59;25.45;;;12.70;;
34317;SDS011;20582;52.196;20.952;2023-11-21T07:42:25;26.10;;;12.65;;
34317;SDS011;20582;52.196;20.952;2023-11-21T07:44:51;23.05;;;11.73;;
34317;SDS011;20582;52.196;20.952;2023-11-21T07:47:17;26.83;;;11.48;;
34317;SDS011;20582;52.196;20.952;2023-11-21T07:49:43;24.92;;;12.15;;
34317;SDS011;20582;52.196;20.952;2023-11-21T07:52:10;24.38;;;12.18;;
34317;SDS011;20582;52.196;20.952;2023-11-21T07:54:36;27.60;;;13.10;;
34317;SDS011;20582;52.196;20.952;2023-11-21T07:57:02;27.77;;;12.07;;
34317;SDS011;20582;52.196;20.952;2023-11-21T07:59:29;25.08;;;13.10;;
34317;SDS011;20582;52.196;20.952;2023-11-21T08:01:55;30.67;;;12.88;;
34317;SDS011;20582;52.196;20.952;2023-11-21T08:04:21;27.33;;;12.13;;
34317;SDS011;20582;52.196;20.952;2023-11-21T08:06:48;26.90;;;12.55;;
34317;SDS011;20582;52.196;20.952;2023-11-21T08:09:14;28.95;;;12.63;;
34317;SDS011;20582;52.196;20.952;2023-11-21T08:11:42;22.90;;;11.15;;
34317;SDS011;20582;52.196;20.952;2023-11-21T08:14:08;24.35;;;11.23;;
34317;SDS011;20582;52.196;20.952;2023-11-21T08:16:34;25.65;;;11.77;;
34317;SDS011;20582;52.196;20.952;2023-11-21T08:19:00;22.67;;;10.70;;
34317;SDS011;20582;52.196;20.952;2023-11-21T08:21:27;23.38;;;11.25;;
34317;SDS011;20582;52.196;20.952;2023-11-21T08:23:54;22.10;;;11.27;;
34317;SDS011;20582;52.196;20.952;2023-11-21T08:26:20;24.02;;;11.73;;
34317;SDS011;20582;52.196;20.952;2023-11-21T08:28:48;25.27;;;11.40;;
34317;SDS011;20582;52.196;20.952;2023-11-21T08:31:17;22.55;;;11.38;;
34317;SDS011;20582;52.196;20.952;2023-11-21T08:33:49;21.25;;;10.35;;
34317;SDS011;20582;52.196;20.952;2023-11-21T08:36:15;22.00;;;10.82;;
34317;SDS011;20582;52.196;20.952;2023-11-21T08:38:41;24.15;;;11.05;;
34317;SDS011;20582;52.196;20.952;2023-11-21T08:41:07;22.05;;;10.60;;
34317;SDS011;20582;52.196;20.952;2023-11-21T08:43:36;23.50;;;10.80;;
34317;SDS011;20582;52.196;20.952;2023-11-21T08:46:06;22.92;;;12.32;;
34317;SDS011;20582;52.196;20.952;2023-11-21T08:48:33;25.77;;;12.10;;
34317;SDS011;20582;52.196;20.952;2023-11-21T08:50:59;25.90;;;13.18;;
34317;SDS011;20582;52.196;20.952;2023-11-21T08:53:25;27.88;;;13.57;;
34317;SDS011;20582;52.196;20.952;2023-11-21T08:55:51;25.60;;;12.63;;
34317;SDS011;20582;52.196;20.952;2023-11-21T08:58:18;25.23;;;11.25;;
34317;SDS011;20582;52.196;20.952;2023-11-21T09:00:44;24.05;;;10.95;;
34317;SDS011;20582;52.196;20.952;2023-11-21T09:03:11;24.17;;;11.40;;
34317;SDS011;20582;52.196;20.952;2023-11-21T09:05:37;29.08;;;12.88;;
34317;SDS011;20582;52.196;20.952;2023-11-21T09:08:04;26.80;;;12.38;;
34317;SDS011;20582;52.196;20.952;2023-11-21T09:10:30;25.70;;;11.38;;
34317;SDS011;20582;52.196;20.952;2023-11-21T09:12:57;24.15;;;11.90;;
34317;SDS011;20582;52.196;20.952;2023-11-21T09:15:24;28.65;;;12.68;;
34317;SDS011;20582;52.196;20.952;2023-11-21T09:17:50;25.63;;;12.80;;
34317;SDS011;20582;52.196;20.952;2023-11-21T09:20:16;26.27;;;12.27;;
34317;SDS011;20582;52.196;20.952;2023-11-21T09:22:42;26.92;;;13.20;;
34317;SDS011;20582;52.196;20.952;2023-11-21T09:25:09;24.98;;;13.00;;
34317;SDS011;20582;52.196;20.952;2023-11-21T09:27:35;27.90;;;12.48;;
34317;SDS011;20582;52.196;20.952;2023-11-21T09:30:02;26.73;;;12.18;;
34317;SDS011;20582;52.196;20.952;2023-11-21T09:32:30;29.38;;;13.18;;
34317;SDS011;20582;52.196;20.952;2023-11-21T09:34:56;27.38;;;13.82;;
34317;SDS011;20582;52.196;20.952;2023-11-21T09:37:23;27.85;;;13.45;;
34317;SDS011;20582;52.196;20.952;2023-11-21T09:39:51;27.83;;;13.75;;
34317;SDS011;20582;52.196;20.952;2023-11-21T09:42:25;26.15;;;12.50;;
34317;SDS011;20582;52.196;20.952;2023-11-21T09:45:03;28.48;;;13.15;;
34317;SDS011;20582;52.196;20.952;2023-11-21T09:47:30;25.42;;;12.57;;
34317;SDS011;20582;52.196;20.952;2023-11-21T09:49:56;28.98;;;13.90;;
34317;SDS011;20582;52.196;20.952;2023-11-21T09:52:24;30.58;;;13.88;;
34317;SDS011;20582;52.196;20.952;2023-11-21T09:54:54;28.15;;;13.10;;
34317;SDS011;20582;52.196;20.952;2023-11-21T09:57:24;26.80;;;13.05;;
34317;SDS011;20582;52.196;20.952;2023-11-21T09:59:51;27.38;;;13.45;;
34317;SDS011;20582;52.196;20.952;2023-11-21T10:02:24;25.55;;;12.50;;
34317;SDS011;20582;52.196;20.952;2023-11-21T10:04:51;26.75;;;13.63;;
34317;SDS011;20582;52.196;20.952;2023-11-21T10:07:19;26.50;;;13.65;;
34317;SDS011;20582;52.196;20.952;2023-11-21T10:09:46;26.55;;;13.27;;
34317;SDS011;20582;52.196;20.952;2023-11-21T10:12:14;28.20;;;13.75;;
34317;SDS011;20582;52.196;20.952;2023-11-21T10:14:41;28.00;;;13.55;;
34317;SDS011;20582;52.196;20.952;2023-11-21T10:17:09;27.13;;;12.85;;
34317;SDS011;20582;52.196;20.952;2023-11-21T10:19:37;24.58;;;12.50;;
34317;SDS011;20582;52.196;20.952;2023-11-21T10:22:04;25.00;;;12.80;;
34317;SDS011;20582;52.196;20.952;2023-11-21T10:24:31;31.15;;;14.70;;
34317;SDS011;20582;52.196;20.952;2023-11-21T10:26:57;26.92;;;13.35;;
34317;SDS011;20582;52.196;20.952;2023-11-21T10:29:24;29.23;;;13.00;;
34317;SDS011;20582;52.196;20.952;2023-11-21T10:31:51;26.70;;;13.50;;
34317;SDS011;20582;52.196;20.952;2023-11-21T10:34:20;28.27;;;15.77;;
34317;SDS011;20582;52.196;20.952;2023-11-21T10:36:46;27.45;;;13.80;;
34317;SDS011;20582;52.196;20.952;2023-11-21T10:39:20;26.00;;;13.70;;
34317;SDS011;20582;52.196;20.952;2023-11-21T10:41:48;27.23;;;12.95;;
34317;SDS011;20582;52.196;20.952;2023-11-21T10:44:15;27.73;;;13.23;;
34317;SDS011;20582;52.196;20.952;2023-11-21T10:46:52;24.63;;;13.23;;
34317;SDS011;20582;52.196;20.952;2023-11-21T10:49:21;25.33;;;12.40;;
34317;SDS011;20582;52.196;20.952;2023-11-21T10:51:49;29.63;;;12.50;;
34317;SDS011;20582;52.196;20.952;2023-11-21T10:54:20;25.25;;;12.20;;
34317;SDS011;20582;52.196;20.952;2023-11-21T10:56:48;26.58;;;12.63;;
34317;SDS011;20582;52.196;20.952;2023-11-21T10:59:16;28.77;;;13.45;;
34317;SDS011;20582;52.196;20.952;2023-11-21T11:01:42;23.67;;;12.65;;
34317;SDS011;20582;52.196;20.952;2023-11-21T11:04:10;27.20;;;14.15;;
34317;SDS011;20582;52.196;20.952;2023-11-21T11:06:44;24.95;;;12.93;;
34317;SDS011;20582;52.196;20.952;2023-11-21T11:09:12;25.75;;;13.77;;
34317;SDS011;20582;52.196;20.952;2023-11-21T11:11:39;31.33;;;14.10;;
34317;SDS011;20582;52.196;20.952;2023-11-21T11:14:07;24.02;;;12.68;;
34317;SDS011;20582;52.196;20.952;2023-11-21T11:16:33;29.05;;;13.68;;
34317;SDS011;20582;52.196;20.952;2023-11-21T11:18:59;28.63;;;14.25;;
34317;SDS011;20582;52.196;20.952;2023-11-21T11:29:08;31.80;;;14.40;;
34317;SDS011;20582;52.196;20.952;2023-11-21T11:34:12;25.52;;;12.13;;
34317;SDS011;20582;52.196;20.952;2023-11-21T11:36:54;30.15;;;13.70;;
34317;SDS011;20582;52.196;20.952;2023-11-21T11:39:37;28.20;;;13.55;;
34317;SDS011;20582;52.196;20.952;2023-11-21T11:42:05;28.20;;;14.45;;
34317;SDS011;20582;52.196;20.952;2023-11-21T11:47:16;27.23;;;13.63;;
34317;SDS011;20582;52.196;20.952;2023-11-21T11:49:57;31.25;;;14.18;;
34317;SDS011;20582;52.196;20.952;2023-11-21T11:52:43;29.88;;;12.98;;
34317;SDS011;20582;52.196;20.952;2023-11-21T11:55:16;29.50;;;14.88;;
34317;SDS011;20582;52.196;20.952;2023-11-21T11:57:46;32.30;;;15.00;;
34317;SDS011;20582;52.196;20.952;2023-11-21T12:02:50;26.73;;;14.30;;
34317;SDS011;20582;52.196;20.952;2023-11-21T12:05:20;34.20;;;16.25;;
34317;SDS011;20582;52.196;20.952;2023-11-21T12:07:47;30.85;;;15.70;;
34317;SDS011;20582;52.196;20.952;2023-11-21T12:10:14;29.50;;;15.43;;
34317;SDS011;20582;52.196;20.952;2023-11-21T12:12:48;28.15;;;14.93;;
34317;SDS011;20582;52.196;20.952;2023-11-21T12:15:15;27.45;;;14.40;;
34317;SDS011;20582;52.196;20.952;2023-11-21T12:17:44;32.75;;;15.93;;
34317;SDS011;20582;52.196;20.952;2023-11-21T12:20:11;28.63;;;13.63;;
34317;SDS011;20582;52.196;20.952;2023-11-21T12:22:42;31.15;;;14.77;;
34317;SDS011;20582;52.196;20.952;2023-11-21T12:25:09;31.77;;;15.30;;
34317;SDS011;20582;52.196;20.952;2023-11-21T12:27:35;30.50;;;14.55;;
34317;SDS011;20582;52.196;20.952;2023-11-21T12:30:01;29.27;;;14.88;;
34317;SDS011;20582;52.196;20.952;2023-11-21T12:32:27;29.98;;;13.90;;
34317;SDS011;20582;52.196;20.952;2023-11-21T12:34:53;29.27;;;14.23;;
34317;SDS011;20582;52.196;20.952;2023-11-21T12:37:19;28.10;;;13.15;;
34317;SDS011;20582;52.196;20.952;2023-11-21T12:39:45;29.02;;;13.95;;
34317;SDS011;20582;52.196;20.952;2023-11-21T12:42:11;30.00;;;15.75;;
34317;SDS011;20582;52.196;20.952;2023-11-21T12:44:38;31.63;;;16.05;;
34317;SDS011;20582;52.196;20.952;2023-11-21T12:47:07;30.48;;;16.02;;
34317;SDS011;20582;52.196;20.952;2023-11-21T12:49:33;34.00;;;16.08;;
34317;SDS011;20582;52.196;20.952;2023-11-21T12:51:59;33.25;;;16.33;;
34317;SDS011;20582;52.196;20.952;2023-11-21T12:54:25;32.10;;;15.68;;
34317;SDS011;20582;52.196;20.952;2023-11-21T12:56:51;30.98;;;15.18;;
34317;SDS011;20582;52.196;20.952;2023-11-21T12:59:17;28.77;;;13.52;;
34317;SDS011;20582;52.196;20.952;2023-11-21T13:01:43;27.80;;;13.98;;
34317;SDS011;20582;52.196;20.952;2023-11-21T13:04:11;24.63;;;13.00;;
34317;SDS011;20582;52.196;20.952;2023-11-21T13:06:37;32.00;;;15.25;;
34317;SDS011;20582;52.196;20.952;2023-11-21T13:09:06;30.70;;;14.35;;
34317;SDS011;20582;52.196;20.952;2023-11-21T13:11:35;30.55;;;15.40;;
34317;SDS011;20582;52.196;20.952;2023-11-21T13:14:01;30.88;;;15.25;;
34317;SDS011;20582;52.196;20.952;2023-11-21T13:16:28;33.85;;;16.13;;
34317;SDS011;20582;52.196;20.952;2023-11-21T13:18:55;33.75;;;16.38;;
34317;SDS011;20582;52.196;20.952;2023-11-21T13:21:21;33.88;;;15.55;;
34317;SDS011;20582;52.196;20.952;2023-11-21T13:23:47;32.33;;;15.23;;
34317;SDS011;20582;52.196;20.952;2023-11-21T13:26:15;26.83;;;13.77;;
34317;SDS011;20582;52.196;20.952;2023-11-21T13:28:42;26.60;;;14.10;;
34317;SDS011;20582;52.196;20.952;2023-11-21T13:31:12;31.80;;;15.05;;
34317;SDS011;20582;52.196;20.952;2023-11-21T13:33:51;32.47;;;15.82;;
34317;SDS011;20582;52.196;20.952;2023-11-21T13:36:21;32.65;;;16.27;;
34317;SDS011;20582;52.196;20.952;2023-11-21T13:38:51;33.42;;;16.80;;
34317;SDS011;20582;52.196;20.952;2023-11-21T13:41:20;34.05;;;17.38;;
34317;SDS011;20582;52.196;20.952;2023-11-21T13:43:53;34.47;;;17.45;;
34317;SDS011;20582;52.196;20.952;2023-11-21T13:46:28;32.60;;;15.77;;
34317;SDS011;20582;52.196;20.952;2023-11-21T13:48:56;30.67;;;16.17;;
34317;SDS011;20582;52.196;20.952;2023-11-21T13:51:22;32.50;;;16.75;;
34317;SDS011;20582;52.196;20.952;2023-11-21T13:54:01;32.05;;;16.35;;
34317;SDS011;20582;52.196;20.952;2023-11-21T13:56:27;31.17;;;16.25;;
34317;SDS011;20582;52.196;20.952;2023-11-21T13:58:54;33.85;;;17.60;;
34317;SDS011;20582;52.196;20.952;2023-11-21T14:01:24;30.75;;;17.83;;
34317;SDS011;20582;52.196;20.952;2023-11-21T14:04:10;28.95;;;16.40;;
34317;SDS011;20582;52.196;20.952;2023-11-21T14:06:42;40.72;;;16.88;;
34317;SDS011;20582;52.196;20.952;2023-11-21T14:09:21;32.97;;;16.27;;
34317;SDS011;20582;52.196;20.952;2023-11-21T14:11:55;35.25;;;18.35;;
34317;SDS011;20582;52.196;20.952;2023-11-21T14:14:22;33.55;;;16.60;;
34317;SDS011;20582;52.196;20.952;2023-11-21T14:16:52;31.92;;;15.88;;
34317;SDS011;20582;52.196;20.952;2023-11-21T14:19:18;31.27;;;17.65;;
34317;SDS011;20582;52.196;20.952;2023-11-21T14:21:45;32.85;;;17.20;;
34317;SDS011;20582;52.196;20.952;2023-11-21T14:24:14;32.33;;;16.83;;
34317;SDS011;20582;52.196;20.952;2023-11-21T14:26:42;32.65;;;16.75;;